Track Семенова Олеся

Time Latitude Longitude Accuracy (66% radius in meters) Altitude (meters) Speed (km/hour) Bearing (degrees) Battery (%) GPS flag
09:12:57 57.203927 60.118387 0 0 0 0 1 delete
09:12:56 57.203928 60.118383 0 0 0 0 1 delete
09:12:55 57.203930 60.118377 0 0 0 0 1 delete
09:12:54 57.203933 60.118365 0 0 0 0 1 delete
09:12:53 57.203938 60.118347 0 0 0 0 1 delete
09:12:52 57.203945 60.118328 0 0 0 0 1 delete
09:12:51 57.203950 60.118318 0 0 0 0 1 delete
09:12:50 57.203958 60.118302 0 0 0 0 1 delete
09:12:49 57.203975 60.118278 0 0 0 0 1 delete
09:12:48 57.203987 60.118265 0 0 0 0 1 delete
09:12:47 57.203995 60.118250 0 0 0 0 1 delete
09:12:46 57.204005 60.118237 0 0 0 0 1 delete
09:12:45 57.204008 60.118233 0 0 0 0 1 delete
09:12:44 57.204005 60.118227 0 0 0 0 1 delete
09:12:43 57.204005 60.118227 0 0 0 0 1 delete
09:12:42 57.204005 60.118227 0 0 0 0 1 delete
09:12:41 57.204005 60.118227 0 0 0 0 1 delete
09:12:40 57.204005 60.118227 0 0 0 0 1 delete
09:12:39 57.204005 60.118227 0 0 0 0 1 delete
09:12:38 57.204005 60.118227 0 0 0 0 1 delete
09:12:37 57.204005 60.118227 0 0 0 0 1 delete
09:12:36 57.204005 60.118227 0 0 0 0 1 delete
09:12:35 57.204005 60.118227 0 0 0 0 1 delete
09:12:34 57.204005 60.118227 0 0 0 0 1 delete
09:12:33 57.204005 60.118227 0 0 0 0 1 delete
09:12:32 57.204005 60.118227 0 0 0 0 1 delete
09:12:31 57.204005 60.118225 0 0 0 0 1 delete
09:12:30 57.204005 60.118225 0 0 0 0 1 delete
09:12:29 57.204005 60.118225 0 0 0 0 1 delete
09:12:28 57.204005 60.118225 0 0 0 0 1 delete
09:12:27 57.204007 60.118223 0 0 0 0 1 delete
09:12:26 57.204008 60.118217 0 0 0 0 1 delete
09:12:25 57.204015 60.118207 0 0 0 0 1 delete
09:12:24 57.204013 60.118207 0 0 0 0 1 delete
09:12:23 57.204013 60.118205 0 0 0 0 1 delete
09:12:22 57.204013 60.118205 0 0 0 0 1 delete
09:12:21 57.204013 60.118203 0 0 0 0 1 delete
09:12:20 57.204010 60.118202 0 0 0 0 1 delete
09:12:19 57.204010 60.118200 0 0 0 0 1 delete
09:12:18 57.204008 60.118198 0 0 0 0 1 delete
09:12:17 57.204010 60.118193 0 0 0 0 1 delete
09:12:16 57.204005 60.118182 0 0 0 0 1 delete
09:12:15 57.204005 60.118182 0 0 0 0 1 delete
09:12:14 57.204005 60.118185 0 0 0 0 1 delete
09:12:13 57.204003 60.118188 0 0 0 0 1 delete
09:12:12 57.204005 60.118187 0 0 0 0 1 delete
09:12:11 57.204005 60.118183 0 0 0 0 1 delete
09:12:10 57.204003 60.118182 0 0 0 0 1 delete
09:12:09 57.204005 60.118178 0 0 0 0 1 delete
09:12:08 57.204005 60.118173 0 0 0 0 1 delete